createdAt,value
2023-02-14T00:04:49.903Z,66.56
2023-02-14T00:09:53.173Z,66.37
2023-02-14T00:15:15.479Z,66.36
2023-02-14T00:20:19.271Z,66.36
2023-02-14T00:25:22.819Z,66.29
2023-02-14T00:30:26.452Z,66.37
2023-02-14T00:35:30.355Z,66.02
2023-02-14T00:40:33.662Z,65.78
2023-02-14T00:45:37.574Z,65.75
2023-02-14T00:50:41.185Z,65.72
2023-02-14T00:55:47.396Z,65.44
2023-02-14T01:00:53.632Z,65.37
2023-02-14T01:05:56.983Z,65.56
2023-02-14T01:11:14.907Z,65.45
2023-02-14T01:16:21.348Z,65.15
2023-02-14T01:21:27.519Z,64.78
2023-02-14T01:26:32.513Z,64.86
2023-02-14T01:31:38.533Z,64.57
2023-02-14T01:36:42.394Z,64.91
2023-02-14T01:41:50.562Z,65.07
2023-02-14T01:46:55.013Z,65.33
2023-02-14T01:52:14.610Z,65.27
2023-02-14T01:57:21.551Z,64.91
2023-02-14T02:02:25.033Z,64.66
2023-02-14T02:07:30.332Z,64.67
2023-02-14T02:12:36.488Z,64.61
2023-02-14T02:17:43.245Z,64.52
2023-02-14T02:23:11.607Z,64.65
2023-02-14T02:28:42.862Z,64.92
2023-02-14T02:34:10.872Z,65.12
2023-02-14T02:39:23.485Z,65.14
2023-02-14T02:44:34.491Z,65.37
2023-02-14T02:50:15.660Z,65.38
2023-02-14T02:55:54.243Z,65.46
2023-02-14T03:01:01.163Z,65.65
2023-02-14T03:06:05.050Z,65.81
2023-02-14T03:11:08.486Z,65.48
2023-02-14T03:16:23.041Z,65.30
2023-02-14T03:21:31.608Z,65.30
2023-02-14T03:27:03.893Z,64.89
2023-02-14T03:32:21.431Z,65.02
2023-02-14T03:37:31.662Z,64.99
2023-02-14T03:42:53.878Z,64.77
2023-02-14T03:48:01.089Z,65.14
2023-02-14T03:53:06.877Z,64.94
2023-02-14T03:58:26.846Z,65.31
2023-02-14T04:03:32.630Z,64.99
2023-02-14T04:08:36.048Z,65.08
2023-02-14T04:13:39.987Z,65.28
2023-02-14T04:19:02.472Z,65.06
2023-02-14T04:24:06.646Z,65.43
2023-02-14T04:29:10.312Z,65.44
2023-02-14T04:34:14.061Z,65.10
2023-02-14T04:39:17.347Z,65.27
2023-02-14T04:44:21.093Z,65.14
2023-02-14T04:49:24.436Z,65.01
2023-02-14T04:54:28.105Z,65.06
2023-02-14T04:59:31.590Z,64.63
2023-02-14T05:04:35.106Z,65.06
2023-02-14T05:09:38.575Z,64.81
2023-02-14T05:14:42.102Z,65.22
2023-02-14T05:19:45.608Z,65.39
2023-02-14T05:24:49.289Z,65.93
2023-02-14T05:29:52.883Z,65.70
2023-02-14T05:34:56.149Z,65.69
2023-02-14T05:39:59.682Z,65.96
2023-02-14T05:45:03.203Z,65.77
2023-02-14T05:50:07.560Z,65.95
2023-02-14T05:55:11.226Z,66.07
2023-02-14T06:00:15.697Z,66.06
2023-02-14T06:05:20.425Z,66.14
2023-02-14T06:10:25.721Z,66.27
2023-02-14T06:15:29.461Z,66.31
2023-02-14T06:20:33.315Z,66.52
2023-02-14T06:25:37.065Z,66.61
2023-02-14T06:30:40.909Z,66.77
2023-02-14T06:35:44.502Z,66.51
2023-02-14T06:40:47.871Z,66.79
2023-02-14T06:45:51.587Z,66.30
2023-02-14T06:50:55.455Z,66.26
2023-02-14T06:55:59.017Z,66.28
2023-02-14T07:01:02.930Z,66.22
2023-02-14T07:06:06.883Z,66.33
2023-02-14T07:11:10.262Z,66.26
2023-02-14T07:16:13.471Z,66.26
2023-02-14T07:21:16.843Z,66.71
2023-02-14T07:26:20.412Z,66.66
2023-02-14T07:31:23.959Z,66.41
2023-02-14T07:36:27.932Z,66.63
2023-02-14T07:41:31.393Z,66.65
2023-02-14T07:46:34.980Z,66.63
2023-02-14T07:51:39.276Z,66.77
2023-02-14T07:56:44.361Z,67.07
2023-02-14T08:01:48.950Z,66.96
2023-02-14T08:06:53.856Z,66.85
2023-02-14T08:12:18.565Z,66.89
2023-02-14T08:17:22.561Z,66.86
2023-02-14T08:22:27.752Z,66.56
2023-02-14T08:27:32.124Z,66.42
2023-02-14T08:32:36.614Z,66.24
2023-02-14T08:37:41.013Z,65.79
2023-02-14T08:42:46.033Z,65.34
2023-02-14T08:47:50.403Z,65.23
2023-02-14T08:52:54.506Z,65.32
2023-02-14T08:57:59.110Z,65.61
2023-02-14T09:03:03.626Z,65.50
2023-02-14T09:08:09.076Z,65.17
2023-02-14T09:13:12.693Z,65.54
2023-02-14T09:18:16.734Z,65.47
2023-02-14T09:23:21.083Z,64.91
2023-02-14T09:28:24.974Z,64.96
2023-02-14T09:33:29.494Z,64.80
2023-02-14T09:38:32.689Z,64.63
2023-02-14T09:43:42.092Z,64.43
2023-02-14T09:48:49.764Z,64.18
2023-02-14T09:54:06.264Z,63.92
2023-02-14T09:59:35.369Z,63.53
2023-02-14T10:04:45.095Z,62.85
2023-02-14T10:10:15.713Z,62.77
2023-02-14T10:15:31.909Z,62.85
2023-02-14T10:20:50.635Z,62.10
2023-02-14T10:26:05.067Z,61.96
2023-02-14T10:31:38.965Z,61.85
2023-02-14T10:37:02.945Z,61.67
2023-02-14T10:42:15.934Z,61.73
2023-02-14T10:47:36.729Z,61.41
2023-02-14T10:52:54.049Z,61.45
2023-02-14T10:57:59.034Z,61.26
2023-02-14T11:03:07.965Z,61.21
2023-02-14T11:08:16.162Z,61.39
2023-02-14T11:13:39.582Z,61.45
2023-02-14T11:18:44.349Z,61.11
2023-02-14T11:23:50.390Z,61.20
2023-02-14T11:29:03.110Z,61.09
2023-02-14T11:34:23.948Z,61.02
2023-02-14T11:39:32.532Z,60.92
2023-02-14T11:44:37.625Z,60.62
2023-02-14T11:49:54.892Z,60.91
2023-02-14T11:55:01.268Z,60.69
2023-02-14T12:00:16.449Z,60.35
2023-02-14T12:05:35.621Z,60.15
2023-02-14T12:10:42.231Z,59.95
2023-02-14T12:15:58.005Z,59.87
2023-02-14T12:21:21.979Z,59.91
2023-02-14T12:26:38.644Z,59.85
2023-02-14T12:31:44.937Z,59.56
2023-02-14T12:37:28.264Z,59.59
2023-02-14T12:42:38.510Z,59.32
2023-02-14T12:48:05.827Z,59.40
2023-02-14T12:53:28.637Z,59.06
2023-02-14T12:58:47.567Z,58.78
2023-02-14T13:03:51.743Z,59.03
2023-02-14T13:09:01.462Z,58.98
2023-02-14T13:14:58.741Z,58.87
2023-02-14T13:20:25.709Z,58.66
2023-02-14T13:25:34.700Z,58.62
2023-02-14T13:30:43.625Z,58.91
2023-02-14T13:35:49.561Z,58.78
2023-02-14T13:40:56.587Z,58.90
2023-02-14T13:46:01.376Z,58.77
2023-02-14T13:51:09.733Z,58.75
2023-02-14T13:56:13.395Z,58.70
2023-02-14T14:01:33.407Z,58.78
2023-02-14T14:07:04.115Z,58.59
2023-02-14T14:12:27.396Z,58.66
2023-02-14T14:17:36.342Z,58.62
2023-02-14T14:22:48.340Z,58.27
2023-02-14T14:27:53.928Z,58.73
2023-02-14T14:33:14.226Z,58.88
2023-02-14T14:38:17.733Z,59.18
2023-02-14T14:43:34.519Z,59.46
2023-02-14T14:48:45.500Z,59.25
2023-02-14T14:53:54.904Z,58.93
2023-02-14T14:59:16.047Z,58.87
2023-02-14T15:04:26.728Z,58.72
2023-02-14T15:09:32.595Z,58.93
2023-02-14T15:14:41.925Z,58.99
2023-02-14T15:19:54.681Z,59.23
2023-02-14T15:24:59.668Z,59.31
2023-02-14T15:30:10.116Z,59.43
2023-02-14T15:35:16.454Z,59.40
2023-02-14T15:40:29.838Z,59.44
2023-02-14T15:45:35.983Z,59.55
2023-02-14T15:51:00.074Z,59.61
2023-02-14T15:56:12.832Z,59.53
2023-02-14T16:01:22.065Z,59.41
2023-02-14T16:06:40.825Z,59.26
2023-02-14T16:11:45.905Z,59.64
2023-02-14T16:17:00.774Z,59.58
2023-02-14T16:22:07.563Z,59.62
2023-02-14T16:27:13.586Z,59.49
2023-02-14T16:32:26.032Z,59.88
2023-02-14T16:37:33.482Z,60.27
2023-02-14T16:42:39.880Z,59.76
2023-02-14T16:47:46.438Z,59.84
2023-02-14T16:52:51.897Z,59.79
2023-02-14T16:57:55.273Z,59.97
2023-02-14T17:03:11.221Z,60.02
2023-02-14T17:08:16.307Z,59.94
2023-02-14T17:13:23.059Z,60.06
2023-02-14T17:18:26.501Z,60.28
2023-02-14T17:23:30.052Z,60.26
2023-02-14T17:28:33.966Z,60.14
2023-02-14T17:33:37.569Z,59.99
2023-02-14T17:38:46.279Z,59.87
2023-02-14T17:43:52.287Z,60.10
2023-02-14T17:48:56.512Z,60.05
2023-02-14T17:53:59.886Z,60.13
2023-02-14T17:59:03.782Z,60.05
2023-02-14T18:04:07.241Z,60.16
2023-02-14T18:09:11.291Z,60.06
2023-02-14T18:14:15.564Z,60.08
2023-02-14T18:19:21.073Z,60.44
2023-02-14T18:24:27.491Z,61.28
2023-02-14T18:29:32.636Z,60.27
2023-02-14T18:34:37.694Z,59.94
2023-02-14T18:39:41.263Z,59.84
2023-02-14T18:44:45.464Z,59.54
2023-02-14T18:49:49.150Z,59.50
2023-02-14T18:54:53.608Z,59.70
2023-02-14T18:59:57.932Z,59.82
2023-02-14T19:05:01.881Z,60.59
2023-02-14T19:10:06.458Z,59.68
2023-02-14T19:15:10.100Z,59.58
2023-02-14T19:20:14.008Z,59.56
2023-02-14T19:25:17.618Z,59.66
2023-02-14T19:30:21.303Z,59.71
2023-02-14T19:35:25.088Z,59.79
2023-02-14T19:40:28.418Z,59.83
2023-02-14T19:45:32.925Z,59.56
2023-02-14T19:50:39.483Z,59.62
2023-02-14T19:55:42.879Z,59.61
2023-02-14T20:00:46.535Z,59.77
2023-02-14T20:05:51.117Z,59.89
2023-02-14T20:10:54.591Z,59.99
2023-02-14T20:15:58.058Z,59.83
2023-02-14T20:21:04.842Z,59.80
2023-02-14T20:26:15.300Z,59.89
2023-02-14T20:31:20.097Z,59.84
2023-02-14T20:36:24.935Z,59.83
2023-02-14T20:41:29.730Z,59.90
2023-02-14T20:46:34.188Z,59.70
2023-02-14T20:51:38.105Z,59.43
2023-02-14T20:56:42.118Z,59.60
2023-02-14T21:01:45.826Z,59.73
2023-02-14T21:06:49.346Z,59.84
2023-02-14T21:11:54.217Z,59.78
2023-02-14T21:16:58.161Z,59.76
2023-02-14T21:22:01.824Z,59.71
2023-02-14T21:27:05.363Z,59.49
2023-02-14T21:32:08.969Z,59.78
2023-02-14T21:37:13.263Z,59.71
2023-02-14T21:42:18.866Z,59.89
2023-02-14T21:47:23.261Z,59.91
2023-02-14T21:52:27.167Z,60.07
2023-02-14T21:57:31.818Z,60.09
2023-02-14T22:02:35.353Z,60.24
2023-02-14T22:07:38.871Z,60.18
2023-02-14T22:12:42.563Z,60.62
2023-02-14T22:17:46.083Z,60.43
2023-02-14T22:22:49.756Z,60.48
2023-02-14T22:27:53.226Z,60.45
2023-02-14T22:32:56.852Z,60.41
2023-02-14T22:38:00.027Z,60.54
2023-02-14T22:43:03.699Z,60.29
2023-02-14T22:48:07.327Z,60.43
2023-02-14T22:53:11.312Z,60.60
2023-02-14T22:58:14.700Z,60.51
2023-02-14T23:03:18.092Z,60.75
2023-02-14T23:08:21.471Z,60.55
2023-02-14T23:13:43.543Z,60.61
2023-02-14T23:19:06.111Z,60.60
2023-02-14T23:24:09.525Z,60.10
2023-02-14T23:29:13.633Z,59.95
2023-02-14T23:34:17.283Z,59.94
2023-02-14T23:39:20.537Z,60.27
2023-02-14T23:44:26.092Z,60.24
2023-02-14T23:49:31.497Z,60.60
2023-02-14T23:54:36.847Z,60.53
2023-02-14T23:59:40.249Z,60.56
